Terminal Aerodrome Forecast
Issued by NWS Green Bay, WI

Home | Current Version | Previous Version | Graphics & Text | Print | Product List | Glossary On
Versions: 1 2 3 4 5 6 7 8 9 10 11 12 13 14 15 16 17 18 19 20 21 22 23 24
000
FTUS43 KGRB 111956 AAB
TAFGRB
TAF AMD
KGRB 111956Z 1120/1218 27005KT P6SM SCT013 BKN035
      TEMPO 1120/1123 OVC013
     FM112300 32008KT P6SM BKN045
     FM120000 33010G16KT P6SM BKN050
     FM120100 33014G24KT P6SM SCT080=

USA.gov is the U.S. government's official web portal to all federal, state and local government web resources and services.